Latest Coastal Weather Observations for Willis Island

IDQ60701

Issued at 5:22 am EST Thursday 29 June 2017 (issued every 10 minutes, with the page automatically refreshed every 10 minutes)

About coastal observations | Map of coastal stations | Coastal observations for QLD | Marine services | Other Formats
Station Details ID: 200283 Name: WILLIS ISLAND Lat: -16.29 Lon: 149.97 Height: 9.29 m
Data from the previous 72 hours. | See also: Recent months at Willis Island
Date/Time
EST
Temp
°C
Wind Pressure Rain since
9am
mm
Weather Cloud Vis
km
Sea
Height
m
Swell
Dir  Spd
kts
Gust
kts
hPa Trend Height
m
Period
s
Dir
29/05:00am 25.2 E 20 23 1016.0 - 0.0 - - - - - - -
29/04:30am 25.0 ESE 19 22 1016.0 - 0.0 - - - - - - -
29/04:00am 24.7 ESE 18 21 1015.8 - 0.0 - - - - - - -
29/03:30am 25.0 E 21 25 1015.6 - 0.0 - - - - - - -
29/03:00am 25.2 E 19 23 1015.7 R 0.0 - - - - - - -
29/02:30am 25.1 E 20 22 1015.8 - 0.0 - - - - - - -
29/02:00am 25.0 ESE 19 23 1016.0 - 0.0 - - - - - - -
29/01:30am 25.2 ESE 20 23 1016.3 - 0.0 - - - - - - -
29/01:00am 25.2 ESE 20 24 1016.6 - 0.0 - - - - - - -
29/12:30am 25.3 ESE 24 27 1016.5 - 0.0 - - - - - - -
29/12:00am 25.1 ESE 23 26 1016.6 F 0.0 - - - - - - -
 
Date/Time
EST
Temp
°C
Wind Pressure Rain since
9am
mm
Weather Cloud Vis
km
Sea
Height
m
Swell
Dir  Spd
kts
Gust
kts
hPa Trend Height
m
Period
s
Dir
28/11:30pm 25.3 E 24 28 1016.5 - 0.0 - - - - - - -
28/11:00pm 25.4 ESE 23 27 1016.7 - 0.0 - - - - - - -
28/10:30pm 25.4 ESE 22 25 1016.9 - 0.0 - - - - - - -
28/10:00pm 25.5 ESE 21 24 1017.2 - 0.0 - - - - - - -
28/09:30pm 25.2 ESE 20 23 1017.1 - 0.0 - - - - - - -
28/09:06pm 25.2 ESE 17 27 1017.1 - 0.0 - - - - - - -
28/09:00pm 25.1 SE 15 18 1017.2 F 0.0 - - - - - - -
28/08:30pm 25.2 ESE 21 23 1017.2 - 0.0 - - - - - - -
28/08:00pm 25.6 ESE 19 21 1017.0 - 0.0 - - - - - - -
28/07:30pm 25.6 ESE 18 21 1016.9 - 0.0 - - - - - - -
28/07:00pm 25.7 ESE 19 22 1016.6 - 0.0 - - - - - - -
28/06:30pm 25.4 ESE 19 23 1016.2 - 0.0 - - - - - - -
28/06:00pm 25.5 ESE 19 22 1016.0 R 0.0 Distant precip. Mostly cloudy 20 2 2.2 9 E
28/05:30pm 25.6 E 18 22 1015.9 - 0.0 - - - - - - -
28/05:00pm 25.7 E 19 22 1015.6 - 0.0 - - - - - - -
28/04:30pm 25.7 E 20 22 1015.3 - 0.0 - - - - - - -
28/04:00pm 26.1 ESE 20 22 1015.0 - 0.0 - - - - - - -
28/03:30pm 26.3 E 20 23 1014.9 - 0.0 - - - - - - -
28/03:00pm 26.3 E 21 24 1014.7 R 0.0 Fine Partly cloudy 20 2 2.0 9 E
28/02:30pm 26.2 ESE 21 24 1014.9 - 0.0 - - - - - - -
28/02:00pm 26.5 ESE 21 24 1014.9 - 0.0 - - - - - - -
28/01:30pm 27.0 ESE 21 24 1015.1 - 0.0 - - - - - - -
28/01:00pm 27.0 ESE 20 23 1015.4 - 0.0 - - - - - - -
28/12:30pm 26.7 ESE 20 23 1015.8 - 0.0 - - - - - - -
28/12:00pm 26.4 ESE 20 24 1016.1 R 0.0 Fine Partly cloudy 25 2 2.0 9 E
28/11:30am 27.1 E 21 24 1016.4 - 0.0 - - - - - - -
28/11:00am 26.5 E 21 24 1016.8 - 0.0 - - - - - - -
28/10:30am 26.9 E 21 25 1017.0 - 0.0 - - - - - - -
28/10:00am 26.6 E 20 24 1016.9 - 0.0 - - - - - - -
28/09:30am 26.4 E 20 23 1017.0 - 0.0 - - - - - - -
28/09:00am 26.3 E 19 22 1017.1 F 0.0 Fine Partly cloudy 25 2 2.2 9 E
28/08:30am 26.1 E 20 23 1017.0 - 0.0 - - - - - - -
28/08:00am 25.8 E 20 23 1016.8 - 0.0 - - - - - - -
28/07:30am 25.6 E 20 23 1016.5 - 0.0 - - - - - - -
28/07:00am 25.4 E 21 23 1016.4 - 0.0 - - - - - - -
28/06:30am 25.3 ESE 20 24 1016.2 - 0.0 - - - - - - -
28/06:00am 25.1 ESE 21 25 1015.9 F 0.0 - - - - - - -
28/05:30am 25.2 ESE 22 26 1015.8 - 0.0 - - - - - - -
28/05:00am 25.1 ESE 21 24 1015.7 - 0.0 - - - - - - -
28/04:30am 25.0 ESE 21 24 1015.7 - 0.0 - - - - - - -
28/04:00am 25.1 ESE 21 24 1015.6 - 0.0 - - - - - - -
28/03:30am 25.0 ESE 22 27 1015.5 - 0.0 - - - - - - -
28/03:00am 25.1 ESE 22 25 1015.5 F 0.0 - - - - - - -
28/02:30am 25.1 ESE 21 25 1015.6 - 0.0 - - - - - - -
28/02:00am 25.1 ESE 21 24 1016.0 - 0.0 - - - - - - -
28/01:30am 25.2 ESE 21 24 1016.2 - 0.0 - - - - - - -
28/01:00am 25.1 E 20 23 1016.5 - 0.0 - - - - - - -
28/12:30am 25.4 ESE 19 22 1017.0 - 0.0 - - - - - - -
28/12:00am 25.3 E 20 23 1017.0 F 0.0 - - - - - - -
 
Date/Time
EST
Temp
°C
Wind Pressure Rain since
9am
mm
Weather Cloud Vis
km
Sea
Height
m
Swell
Dir  Spd
kts
Gust
kts
hPa Trend Height
m
Period
s
Dir
27/11:30pm 25.3 E 19 22 1017.3 - 0.0 - - - - - - -
27/11:00pm 25.2 ESE 21 24 1017.2 - 0.0 - - - - - - -
27/10:30pm 25.0 ESE 20 23 1017.3 - 0.0 - - - - - - -
27/10:00pm 25.0 ESE 21 24 1017.4 - 0.0 - - - - - - -
27/09:30pm 25.2 E 20 23 1017.3 - 0.0 - - - - - - -
27/09:00pm 25.1 ESE 19 23 1017.5 F 0.0 - - - - - - -
27/08:30pm 25.1 ESE 19 22 1017.3 - 0.0 - - - - - - -
27/08:00pm 25.1 E 20 23 1017.1 - 0.0 - - - - - - -
27/07:30pm 25.2 ESE 21 24 1016.8 - 0.0 - - - - - - -
27/07:00pm 25.0 ESE 21 25 1016.5 - 0.0 - - - - - - -
27/06:30pm 25.0 ESE 21 24 1016.3 - 0.0 - - - - - - -
27/06:00pm 25.2 ESE 20 23 1016.2 F 0.0 Distant precip. Mostly cloudy 20 2 1.9 7 SE
27/05:30pm 25.3 ESE 21 23 1015.9 - 0.0 - - - - - - -
27/05:00pm 25.5 E 19 22 1015.7 - 0.0 - - - - - - -
27/04:30pm 25.8 E 17 20 1015.5 - 0.0 - - - - - - -
27/04:00pm 26.0 ESE 19 22 1015.4 - 0.0 - - - - - - -
27/03:30pm 26.3 ESE 19 22 1015.4 - 0.0 - - - - - - -
27/03:00pm 26.1 ESE 19 22 1015.4 R 0.0 Fine Partly cloudy 22 2 2.0 7 SE
27/02:30pm 26.6 ESE 19 22 1015.6 - 0.0 - - - - - - -
27/02:00pm 26.8 ESE 19 22 1015.5 - 0.0 - - - - - - -
27/01:30pm 26.7 ESE 21 24 1015.5 - 0.0 - - - - - - -
27/01:00pm 26.9 ESE 20 23 1015.7 - 0.0 - - - - - - -
27/12:30pm 26.9 ESE 20 24 1016.0 - 0.0 - - - - - - -
27/12:00pm 26.9 ESE 21 25 1016.3 F 0.0 Haze Mostly clear 15 3 2.3 7 SE
27/11:30am 26.9 ESE 20 23 1016.6 - 0.0 - - - - - - -
27/11:00am 26.8 ESE 19 23 1017.1 - 0.0 - - - - - - -
27/10:30am 26.7 ESE 19 22 1017.4 - 0.0 - - - - - - -
27/10:00am 26.7 ESE 17 21 1017.7 - 0.0 - - - - - - -
27/09:30am 26.4 ESE 16 19 1017.9 - 0.0 - - - - - - -
27/09:00am 26.4 ESE 17 19 1017.6 R 0.0 Fine Partly cloudy 25 2 2.0 8 E
27/08:30am 25.7 ESE 18 20 1017.4 - 0.0 - - - - - - -
27/08:00am 25.3 ESE 18 21 1017.1 - 0.0 - - - - - - -
27/07:30am 25.0 ESE 19 22 1016.7 - 0.0 - - - - - - -
27/07:00am 24.5 ESE 18 21 1016.4 - 0.0 - - - - - - -
27/06:30am 24.1 SE 18 21 1016.2 - 0.0 - - - - - - -
27/06:00am 24.3 SE 18 22 1015.9 F 0.0 - - - - - - -
27/05:30am 24.3 SE 19 21 1015.8 - 0.0 - - - - - - -
27/05:00am 24.3 SE 20 23 1015.8 - 0.0 - - - - - - -
27/04:30am 24.2 SE 20 24 1015.8 - 0.0 - - - - - - -
27/04:00am 24.4 ESE 20 25 1015.8 - 0.0 - - - - - - -
27/03:30am 24.5 ESE 21 25 1015.8 - 0.0 - - - - - - -
27/03:00am 24.8 ESE 21 25 1016.0 R 0.0 - - - - - - -
27/02:30am 24.6 SE 22 25 1016.1 - 0.0 - - - - - - -
27/02:00am 24.7 SE 20 23 1016.4 - 0.0 - - - - - - -
27/01:30am 24.6 SE 23 25 1016.4 - 0.0 - - - - - - -
27/01:00am 24.9 SE 21 25 1016.6 - 0.0 - - - - - - -
27/12:30am 24.9 ESE 20 23 1016.7 - 0.0 - - - - - - -
27/12:00am 24.8 ESE 20 24 1016.8 F 0.0 - - - - - - -
 
Date/Time
EST
Temp
°C
Wind Pressure Rain since
9am
mm
Weather Cloud Vis
km
Sea
Height
m
Swell
Dir  Spd
kts
Gust
kts
hPa Trend Height
m
Period
s
Dir
26/11:30pm 24.9 ESE 20 22 1017.1 - 0.0 - - - - - - -
26/11:00pm 24.6 SE 19 23 1017.2 - 0.0 - - - - - - -
26/10:30pm 24.9 SE 21 26 1017.5 - 0.0 - - - - - - -
26/10:00pm 24.7 SE 21 26 1017.5 - 0.0 - - - - - - -
26/09:30pm 24.8 ESE 20 23 1017.6 - 0.0 - - - - - - -
26/09:00pm 24.9 ESE 19 23 1017.5 R 0.0 - - - - - - -
26/08:30pm 24.7 SE 19 23 1017.3 - 0.0 - - - - - - -
26/08:00pm 24.6 ESE 18 21 1017.1 - 0.0 - - - - - - -
26/07:30pm 24.8 SE 20 23 1016.9 - 0.0 - - - - - - -
26/07:00pm 24.7 SE 19 22 1016.4 - 0.0 - - - - - - -
26/06:30pm 24.8 SE 19 22 1016.2 - 0.0 - - - - - - -
26/06:00pm 24.8 SE 18 20 1015.9 F 0.0 Fine Mostly cloudy 25 2 1.9 7 SE
26/05:30pm 24.7 ESE 17 21 1015.7 - 0.0 - - - - - - -
26/05:00pm 24.7 SE 18 20 1015.7 - 0.0 - - - - - - -
26/04:30pm 25.4 SE 17 21 1015.4 - 0.0 - - - - - - -
26/04:00pm 25.5 SE 16 19 1015.1 - 0.0 - - - - - - -
26/03:30pm 25.7 SE 17 20 1015.0 - 0.0 - - - - - - -
26/03:00pm 26.1 SE 17 19 1014.9 R 0.0 Fine Mostly cloudy 25 2 2.0 8 SE
26/02:30pm 26.2 SE 17 19 1015.0 - 0.0 - - - - - - -
26/02:00pm 26.7 SE 17 19 1015.1 - 0.0 - - - - - - -
26/01:30pm 26.8 ESE 17 20 1015.5 - 0.0 - - - - - - -
26/01:00pm 26.8 SE 17 21 1015.6 - 0.0 - - - - - - -
26/12:30pm 26.3 SE 19 22 1015.9 - 0.0 - - - - - - -
26/12:00pm 26.5 SE 19 23 1016.2 R 0.0 Fine Mostly cloudy 22 2 2.3 7 SE
26/11:30am 26.3 SE 19 23 1016.5 - 0.0 - - - - - - -
26/11:00am 26.2 SE 20 23 1016.7 - 0.0 - - - - - - -
26/10:30am 26.1 SE 20 24 1016.8 - 0.0 - - - - - - -
26/10:00am 26.2 ESE 20 23 1017.0 - 0.0 - - - - - - -
26/09:30am 26.1 SE 19 23 1016.8 - 0.0 - - - - - - -
26/09:00am 24.8 ESE 21 25 1016.8 R 0.0 Distant precip. Partly cloudy 18 2 2.2 7 E
26/08:30am 24.7 SE 22 26 1016.5 - 0.0 - - - - - - -
26/08:00am 24.2 SE 23 26 1016.4 - 0.0 - - - - - - -
26/07:30am 24.5 ESE 21 25 1016.0 - 0.0 - - - - - - -
26/07:00am 24.5 SE 22 26 1015.4 - 0.0 - - - - - - -
26/06:53am 24.5 ESE 21 24 1015.3 - 0.0 - - - - - - -
26/06:30am 23.8 E 19 26 1015.0 - 0.0 - - - - - - -
26/06:00am 24.4 E 17 19 1014.8 F 0.0 - - - - - - -
26/05:30am 24.1 E 17 20 1014.7 - 0.0 - - - - - - -

Other Formats:

Comma delimited format used in spreadsheet applications
http://www.bom.gov.au/fwo/IDQ60701/IDQ60701.94299.axf

JavaScript Object Notation format (JSON) in row-major order
http://www.bom.gov.au/fwo/IDQ60701/IDQ60701.94299.json